Time;durP1;ratioP1;P1;durP2;ratioP2;P2;SDS_P1;SDS_P2;PMS_P1;PMS_P2;Temp;Humidity;BMP_temperature;BMP_pressure;BME280_temperature;BME280_humidity;BME280_pressure;Samples;Min_cycle;Max_cycle;Signal;HPM_P1;HPM_P2
2023/03/11 00:00:18;;;;;;;5.45;1.30;;;;;;;2.40;69.97;100651.28;5079448;28;20111;-87
2023/03/11 00:02:45;;;;;;;8.45;1.30;;;;;;;2.25;71.02;100641.88;5063172;28;20029;-88
2023/03/11 00:05:25;;;;;;;4.70;1.10;;;;;;;2.26;70.77;100656.63;5092327;28;20124;-88
2023/03/11 00:07:51;;;;;;;4.65;0.88;;;;;;;2.15;70.57;100648.06;5074583;28;20024;-87
2023/03/11 00:10:41;;;;;;;3.20;1.20;;;;;;;2.15;71.25;100661.09;5074568;28;20036;-88
2023/03/11 00:13:09;;;;;;;8.43;1.38;;;;;;;2.00;70.52;100655.09;5078679;28;20050;-87
2023/03/11 00:15:36;;;;;;;6.85;1.10;;;;;;;1.93;70.46;100653.44;5074290;28;20038;-88
2023/03/11 00:18:02;;;;;;;6.50;1.42;;;;;;;1.94;70.74;100662.13;5074036;28;20361;-88
2023/03/11 00:20:33;;;;;;;3.85;1.50;;;;;;;1.84;71.36;100658.72;5092761;28;20100;-88
2023/03/11 00:23:04;;;;;;;1.15;0.90;;;;;;;1.72;71.57;100657.03;5091685;28;20452;-88
2023/03/11 00:25:31;;;;;;;6.15;1.50;;;;;;;1.72;71.79;100656.19;5074175;28;20031;-88
2023/03/11 00:27:57;;;;;;;3.47;0.90;;;;;;;1.66;72.00;100672.72;5054139;28;20044;-88
2023/03/11 00:30:23;;;;;;;5.88;1.33;;;;;;;1.66;71.82;100679.69;5086413;28;20098;-88
2023/03/11 00:32:51;;;;;;;3.13;0.98;;;;;;;1.62;71.68;100675.38;5086930;28;20024;-88
2023/03/11 00:35:21;;;;;;;6.63;1.33;;;;;;;1.56;72.01;100670.19;5086381;28;20022;-88
2023/03/11 00:37:47;;;;;;;5.57;1.00;;;;;;;1.53;71.37;100684.97;5092466;28;20430;-88
2023/03/11 00:40:15;;;;;;;9.18;1.50;;;;;;;1.50;71.64;100685.00;5074073;28;20602;-88
2023/03/11 00:42:40;;;;;;;4.57;1.20;;;;;;;1.43;70.49;100691.09;5073675;28;20024;-88
2023/03/11 00:45:06;;;;;;;4.55;0.85;;;;;;;1.47;71.94;100703.25;5091785;28;20097;-88
2023/03/11 00:47:32;;;;;;;6.75;1.15;;;;;;;1.40;70.72;100703.25;5073960;28;20020;-88
2023/03/11 00:49:57;;;;;;;5.28;1.15;;;;;;;1.39;71.06;100689.38;5060142;28;20035;-88
2023/03/11 00:52:22;;;;;;;4.25;1.00;;;;;;;1.44;71.45;100703.25;5073412;28;20491;-88
2023/03/11 00:54:48;;;;;;;5.28;1.00;;;;;;;1.36;70.88;100694.63;5073533;28;20083;-88
2023/03/11 00:57:13;;;;;;;3.33;1.05;;;;;;;1.40;70.97;100700.66;5091945;28;20078;-88
2023/03/11 00:59:38;;;;;;;7.28;1.08;;;;;;;1.36;71.19;100696.38;5091591;28;20019;-88
2023/03/11 01:02:03;;;;;;;4.97;0.98;;;;;;;1.28;70.93;100696.41;5092097;28;20475;-88
2023/03/11 01:04:29;;;;;;;6.38;1.38;;;;;;;1.17;70.98;100685.16;5068851;28;20267;-88
2023/03/11 01:06:54;;;;;;;6.75;1.45;;;;;;;1.32;71.08;100716.34;5073488;28;20027;-88
2023/03/11 01:09:19;;;;;;;3.03;0.98;;;;;;;1.22;71.15;100704.25;5091586;28;20024;-88
2023/03/11 01:11:45;;;;;;;2.72;0.95;;;;;;;1.25;70.99;100718.09;5091678;28;20030;-88
2023/03/11 01:14:10;;;;;;;1.63;0.70;;;;;;;1.31;70.86;100727.66;5091092;28;20032;-88
2023/03/11 01:16:35;;;;;;;9.32;1.75;;;;;;;1.25;70.83;100725.91;5073247;28;20024;-88
2023/03/11 01:19:01;;;;;;;4.07;1.00;;;;;;;1.22;71.33;100718.13;5073192;28;20023;-88
2023/03/11 01:21:26;;;;;;;2.03;1.00;;;;;;;1.28;70.96;100728.50;5073270;28;20020;-88
2023/03/11 01:23:51;;;;;;;6.63;1.00;;;;;;;1.33;71.64;100728.50;5060678;28;20480;-89
2023/03/11 01:26:17;;;;;;;3.85;1.10;;;;;;;1.33;71.22;100732.84;5073217;28;20384;-88
2023/03/11 01:28:42;;;;;;;4.68;1.00;;;;;;;1.33;70.78;100725.88;5072965;28;20047;-88
2023/03/11 01:31:09;;;;;;;2.50;1.02;;;;;;;1.31;70.38;100732.00;5091272;28;20066;-88
2023/03/11 01:33:34;;;;;;;2.42;0.95;;;;;;;1.35;70.48;100737.16;5071766;28;20024;-88
2023/03/11 01:35:59;;;;;;;3.97;1.10;;;;;;;1.35;70.54;100738.88;5078345;28;20534;-88
2023/03/11 01:38:25;;;;;;;5.13;1.17;;;;;;;1.35;70.21;100733.69;5091130;28;20024;-88
2023/03/11 01:40:52;;;;;;;4.13;1.30;;;;;;;1.36;70.98;100738.03;5072496;28;20476;-88
2023/03/11 01:43:37;;;;;;;7.90;1.42;;;;;;;1.40;70.67;100742.34;5083889;28;20048;-88
2023/03/11 01:46:20;;;;;;;5.35;1.08;;;;;;;1.36;70.63;100740.66;5072822;28;20491;-88
2023/03/11 01:48:51;;;;;;;2.20;1.05;;;;;;;1.31;70.33;100751.09;5090904;28;20474;-88
2023/03/11 01:51:24;;;;;;;4.05;0.90;;;;;;;1.25;71.29;100743.28;5072090;28;20441;-88
2023/03/11 01:53:52;;;;;;;5.97;1.40;;;;;;;1.21;71.17;100725.91;5077561;28;20019;-88
2023/03/11 01:56:18;;;;;;;5.15;1.30;;;;;;;1.27;71.13;100736.34;5072372;28;20570;-88
2023/03/11 01:58:47;;;;;;;6.43;1.15;;;;;;;1.21;70.70;100737.22;5090744;28;20082;-88
2023/03/11 02:01:13;;;;;;;6.10;1.08;;;;;;;1.20;71.46;100726.81;5072431;28;20107;-88
2023/03/11 02:03:41;;;;;;;3.67;1.10;;;;;;;1.25;72.75;100743.28;5070806;28;20116;-88
2023/03/11 02:06:10;;;;;;;4.80;0.98;;;;;;;1.07;72.61;100728.56;5090592;28;20543;-88
2023/03/11 02:08:36;;;;;;;2.47;1.20;;;;;;;1.10;72.19;100745.94;5072259;28;20093;-88
2023/03/11 02:11:06;;;;;;;4.65;1.23;;;;;;;1.01;72.58;100744.22;5072352;28;20475;-88
2023/03/11 02:13:34;;;;;;;6.95;1.50;;;;;;;0.92;73.06;100733.81;5090076;28;20032;-88
2023/03/11 02:16:00;;;;;;;3.33;1.23;;;;;;;0.99;73.54;100748.56;5058842;28;20020;-88
2023/03/11 02:18:26;;;;;;;4.57;0.95;;;;;;;0.92;73.84;100739.03;5072105;28;20042;-88
2023/03/11 02:21:03;;;;;;;9.13;1.50;;;;;;;0.89;74.15;100750.34;5090384;28;20028;-88
2023/03/11 02:23:49;;;;;;;6.55;1.90;;;;;;;0.90;73.71;100757.28;5082358;28;20104;-88
2023/03/11 02:26:27;;;;;;;3.03;1.20;;;;;;;0.81;73.41;100752.06;5076946;28;20498;-88
2023/03/11 02:28:53;;;;;;;8.27;1.80;;;;;;;0.76;73.95;100746.03;5090172;28;20020;-88
2023/03/11 02:31:19;;;;;;;3.42;1.10;;;;;;;0.72;74.03;100744.28;5090039;28;20024;-88
2023/03/11 02:33:46;;;;;;;4.82;1.90;;;;;;;0.67;74.64;100744.28;5089466;28;20024;-88
2023/03/11 02:36:32;;;;;;;6.70;1.40;;;;;;;0.74;73.99;100748.59;5072006;28;20473;-88
2023/03/11 02:39:02;;;;;;;3.50;1.40;;;;;;;0.62;74.15;100739.97;5090029;28;20024;-88
2023/03/11 02:41:30;;;;;;;3.15;1.15;;;;;;;0.66;74.83;100754.72;5090285;28;20028;-88
2023/03/11 02:43:56;;;;;;;3.25;1.23;;;;;;;0.64;74.73;100754.69;5066125;28;20534;-88
2023/03/11 02:46:22;;;;;;;12.68;1.98;;;;;;;0.55;74.87;100735.63;5090206;28;20024;-88
2023/03/11 02:48:48;;;;;;;2.83;1.23;;;;;;;0.59;74.93;100742.56;5071885;28;20024;-88
2023/03/11 02:51:13;;;;;;;4.10;1.55;;;;;;;0.51;74.74;100739.97;5090120;28;20500;-89
2023/03/11 02:53:46;;;;;;;7.25;1.65;;;;;;;0.48;74.84;100738.25;5089529;28;20024;-89
2023/03/11 02:56:11;;;;;;;5.28;1.63;;;;;;;0.44;74.98;100739.09;5090044;28;20550;-88
2023/03/11 02:58:36;;;;;;;4.25;1.35;;;;;;;0.46;75.31;100745.16;5089908;28;20106;-89
2023/03/11 03:01:02;;;;;;;3.92;1.60;;;;;;;0.44;75.05;100746.91;5090082;28;20043;-88
2023/03/11 03:03:27;;;;;;;3.25;1.52;;;;;;;0.35;74.42;100739.13;5061117;28;20036;-88
2023/03/11 03:05:52;;;;;;;6.72;1.88;;;;;;;0.25;74.12;100737.38;5094187;28;20042;-89
2023/03/11 03:08:18;;;;;;;4.40;2.15;;;;;;;0.13;74.19;100745.16;5075787;28;20073;-89
2023/03/11 03:10:43;;;;;;;5.47;1.40;;;;;;;0.15;75.93;100753.84;5093851;28;20027;-88
2023/03/11 03:13:09;;;;;;;6.72;1.42;;;;;;;0.04;76.19;100733.03;5072257;28;20030;-88
2023/03/11 03:15:34;;;;;;;4.75;1.60;;;;;;;0.11;76.17;100757.31;5086222;28;20266;-88
2023/03/11 03:17:59;;;;;;;5.93;2.00;;;;;;;0.08;75.19;100760.75;5075506;28;20024;-88
2023/03/11 03:20:25;;;;;;;5.20;1.52;;;;;;;0.01;75.68;100753.84;5075548;28;20016;-88
2023/03/11 03:22:51;;;;;;;5.07;1.40;;;;;;;0.03;74.81;100769.41;5093350;28;20479;-88
2023/03/11 03:25:16;;;;;;;5.80;1.23;;;;;;;-0.04;75.98;100779.81;5085473;28;20081;-88
2023/03/11 03:27:41;;;;;;;4.35;1.70;;;;;;;-0.03;76.11;100791.06;5075320;28;20016;-89
2023/03/11 03:30:08;;;;;;;4.80;1.33;;;;;;;0.03;76.24;100790.22;5075769;28;20093;-89
2023/03/11 03:32:34;;;;;;;6.15;1.77;;;;;;;0.06;76.31;100790.22;5093517;28;20024;-89
2023/03/11 03:35:01;;;;;;;7.72;1.58;;;;;;;0.18;76.27;100795.41;5068970;28;20550;-89
2023/03/11 03:37:27;;;;;;;8.20;1.63;;;;;;;0.15;76.33;100790.25;5075385;28;20020;-89
2023/03/11 03:39:53;;;;;;;3.95;2.10;;;;;;;0.21;76.24;100801.50;5093398;28;20027;-89
2023/03/11 03:42:20;;;;;;;12.93;1.85;;;;;;;0.31;76.10;100812.78;5075162;28;20467;-89
2023/03/11 03:44:45;;;;;;;6.40;1.65;;;;;;;0.34;76.02;100822.31;5093086;28;20486;-89
2023/03/11 03:47:10;;;;;;;8.50;1.77;;;;;;;0.37;75.63;100817.13;5075309;28;20016;-89
2023/03/11 03:49:36;;;;;;;7.57;1.55;;;;;;;0.35;75.79;100811.06;5075538;28;20506;-89
2023/03/11 03:52:04;;;;;;;5.18;1.55;;;;;;;0.41;75.38;100814.50;5093646;28;20031;-89
2023/03/11 03:54:29;;;;;;;6.93;2.13;;;;;;;0.41;75.47;100824.91;5072865;28;20022;-89
2023/03/11 03:56:55;;;;;;;9.32;1.80;;;;;;;0.42;75.12;100810.19;5074088;28;20394;-89
2023/03/11 03:59:20;;;;;;;5.68;1.80;;;;;;;0.40;75.23;100807.59;5091947;28;20028;-89
2023/03/11 04:01:45;;;;;;;4.03;1.38;;;;;;;0.38;75.25;100803.28;5092071;28;20031;-89
2023/03/11 04:04:11;;;;;;;6.15;1.50;;;;;;;0.49;75.44;100823.19;5081533;28;20100;-88
2023/03/11 04:06:36;;;;;;;5.25;1.92;;;;;;;0.47;75.25;100822.34;5089634;28;20146;-89
2023/03/11 04:09:01;;;;;;;4.97;1.40;;;;;;;0.46;74.93;100817.13;5091987;28;20068;-89
2023/03/11 04:11:27;;;;;;;4.82;1.90;;;;;;;0.43;74.72;100815.41;5073924;28;20024;-89
2023/03/11 04:13:53;;;;;;;6.65;1.60;;;;;;;0.41;75.11;100818.84;5072888;28;20110;-89
2023/03/11 04:16:22;;;;;;;10.00;1.83;;;;;;;0.42;75.22;100828.38;5092176;28;20031;-89
2023/03/11 04:18:48;;;;;;;3.85;1.65;;;;;;;0.42;74.88;100834.47;5073400;28;20177;-88
2023/03/11 04:21:13;;;;;;;4.97;1.52;;;;;;;0.39;75.72;100837.06;5073854;28;20111;-88
2023/03/11 04:23:39;;;;;;;5.68;1.52;;;;;;;0.29;75.45;100827.53;5068045;28;20017;-89
2023/03/11 04:26:04;;;;;;;5.90;1.80;;;;;;;0.19;74.28;100826.63;5090731;28;20031;-88
2023/03/11 04:28:29;;;;;;;2.88;1.40;;;;;;;0.15;75.75;100829.22;5073724;28;20497;-88
2023/03/11 04:30:55;;;;;;;5.53;1.55;;;;;;;0.11;75.42;100835.28;5073916;28;20439;-89
2023/03/11 04:33:20;;;;;;;4.18;1.58;;;;;;;0.09;75.78;100844.78;5091487;28;20102;-89
2023/03/11 04:35:46;;;;;;;4.13;1.42;;;;;;;0.02;75.37;100836.13;5073383;28;20494;-89
2023/03/11 04:38:11;;;;;;;5.90;1.55;;;;;;;-0.11;74.35;100844.75;5073418;28;20024;-89
2023/03/11 04:40:37;;;;;;;4.38;1.70;;;;;;;-0.13;73.95;100847.34;5068804;28;20022;-89
2023/03/11 04:43:03;;;;;;;5.97;2.03;;;;;;;-0.34;75.60;100824.72;5083039;28;20024;-89
2023/03/11 04:45:29;;;;;;;7.35;1.75;;;;;;;-0.39;75.02;100823.84;5077170;28;20031;-90
2023/03/11 04:47:54;;;;;;;4.53;1.52;;;;;;;-0.40;75.69;100834.25;5073241;28;20031;-90
2023/03/11 04:50:20;;;;;;;5.50;1.75;;;;;;;-0.37;74.63;100848.13;5073108;28;20493;-90
2023/03/11 04:52:46;;;;;;;5.88;1.80;;;;;;;-0.48;74.19;100851.50;5073276;28;20073;-89
2023/03/11 04:55:12;;;;;;;4.30;1.73;;;;;;;-0.52;76.93;100837.63;5054497;28;1051043;-90
2023/03/11 04:57:38;;;;;;;7.75;1.77;;;;;;;-0.49;75.65;100848.03;5074422;28;20036;-90
2023/03/11 05:00:10;;;;;;;5.40;1.90;;;;;;;-0.56;77.44;100826.38;5073870;28;20073;-90
2023/03/11 05:02:36;;;;;;;;;;;;;;;-0.29;76.20;100846.41;5069009;28;20062;-90
2023/03/11 05:05:02;;;;;;;8.35;1.48;;;;;;;-0.39;77.46;100838.56;5063375;28;19963;-90
2023/03/11 05:07:27;;;;;;;3.65;1.60;;;;;;;-0.43;77.83;100832.47;5092351;28;20085;-90
2023/03/11 05:09:52;;;;;;;3.05;1.75;;;;;;;-0.29;77.74;100843.81;5073826;28;20028;-89
2023/03/11 05:12:18;;;;;;;2.20;1.50;;;;;;;-0.37;75.65;100829.06;5092598;28;20054;-89
2023/03/11 05:14:43;;;;;;;1.83;1.23;;;;;;;-0.46;75.82;100842.88;5091691;28;20017;-89
2023/03/11 05:17:10;;;;;;;3.63;1.70;;;;;;;-0.48;76.86;100849.78;5073088;28;20046;-90
2023/03/11 05:19:36;;;;;;;4.20;1.80;;;;;;;-0.48;78.17;100854.97;5069853;28;20621;-89
2023/03/11 05:22:03;;;;;;;4.07;1.63;;;;;;;-0.40;76.40;100865.41;5083241;28;20094;-89
2023/03/11 05:24:28;;;;;;;6.75;1.88;;;;;;;-0.59;75.46;100857.53;5068105;28;20031;-90
2023/03/11 05:26:54;;;;;;;1.60;1.30;;;;;;;-0.59;77.57;100865.31;5091371;28;20020;-90
2023/03/11 05:29:20;;;;;;;4.85;1.40;;;;;;;-0.57;78.16;100860.97;5091568;28;20255;-89
2023/03/11 05:31:45;;;;;;;3.30;1.70;;;;;;;-0.49;77.56;100865.34;5091661;28;20030;-90
2023/03/11 05:34:11;;;;;;;13.90;1.85;;;;;;;-0.48;77.42;100865.34;5072497;28;20122;-90
2023/03/11 05:36:36;;;;;;;5.93;1.80;;;;;;;-0.41;77.98;100882.72;5091886;28;20027;-90
2023/03/11 05:39:02;;;;;;;2.90;2.38;;;;;;;-0.41;78.07;100872.34;5091257;28;20036;-89
2023/03/11 05:41:27;;;;;;;3.58;1.50;;;;;;;-0.44;77.69;100868.84;5091668;28;20031;-90
2023/03/11 05:43:52;;;;;;;5.20;2.33;;;;;;;-0.45;77.71;100873.19;5090695;28;20028;-90
2023/03/11 05:46:19;;;;;;;2.40;1.60;;;;;;;-0.46;78.27;100881.84;5091285;28;20028;-90
2023/03/11 05:48:44;;;;;;;3.70;1.73;;;;;;;-0.44;78.14;100890.47;5091279;28;20032;-90
2023/03/11 05:51:10;;;;;;;2.90;1.85;;;;;;;-0.49;78.16;100881.81;5091278;28;20031;-90
2023/03/11 05:53:36;;;;;;;2.45;1.45;;;;;;;-0.44;78.21;100887.88;5090791;28;20035;-89
2023/03/11 05:56:03;;;;;;;4.78;1.80;;;;;;;-0.47;77.92;100894.78;5091310;28;20036;-89
2023/03/11 05:58:30;;;;;;;3.65;1.85;;;;;;;-0.56;77.53;100888.72;5090782;28;20048;-89
2023/03/11 06:00:56;;;;;;;3.95;1.70;;;;;;;-0.57;78.01;100889.53;5090927;28;20039;-89
2023/03/11 06:03:21;;;;;;;4.00;2.22;;;;;;;-0.53;78.51;100901.69;5077203;28;20028;-89
2023/03/11 06:05:48;;;;;;;7.03;1.70;;;;;;;-0.59;78.68;100888.69;5072774;28;20028;-89
2023/03/11 06:08:14;;;;;;;2.85;2.28;;;;;;;-0.47;78.65;100905.19;5072939;28;20502;-90
2023/03/11 06:10:40;;;;;;;6.15;1.77;;;;;;;-0.53;78.66;100898.22;5090784;28;20036;-90
2023/03/11 06:13:05;;;;;;;5.18;1.95;;;;;;;-0.54;78.11;100894.75;5090540;28;20652;-89
2023/03/11 06:15:35;;;;;;;8.80;2.67;;;;;;;-0.57;78.74;100901.66;5072403;28;20522;-89
2023/03/11 06:18:00;;;;;;;6.28;2.13;;;;;;;-0.54;78.83;100894.75;5072671;28;20532;-90
2023/03/11 06:20:27;;;;;;;5.43;2.10;;;;;;;-0.46;77.67;100909.53;5072349;28;20137;-90
2023/03/11 06:22:52;;;;;;;8.27;2.10;;;;;;;-0.53;78.14;100901.69;5072138;28;20046;-90
2023/03/11 06:25:18;;;;;;;4.28;2.10;;;;;;;-0.52;78.35;100903.41;5071678;28;20024;-89
2023/03/11 06:27:47;;;;;;;4.95;1.80;;;;;;;-0.48;78.64;100909.50;5072603;28;20024;-90
2023/03/11 06:30:13;;;;;;;3.72;1.88;;;;;;;-0.43;78.61;100917.31;5072152;28;20073;-89
2023/03/11 06:32:38;;;;;;;5.93;2.20;;;;;;;-0.42;78.79;100911.25;5090502;28;20016;-89
2023/03/11 06:35:04;;;;;;;8.10;2.42;;;;;;;-0.39;78.12;100914.75;5089634;28;20518;-90
2023/03/11 06:37:30;;;;;;;4.00;2.05;;;;;;;-0.33;78.18;100924.31;5090680;28;20095;-90
2023/03/11 06:39:55;;;;;;;6.18;2.28;;;;;;;-0.24;78.14;100934.75;5072093;28;20030;-90
2023/03/11 06:42:22;;;;;;;4.75;2.10;;;;;;;-0.25;78.06;100930.41;5071947;28;20027;-90
2023/03/11 06:44:48;;;;;;;6.50;3.20;;;;;;;-0.25;78.43;100938.22;5090211;28;20032;-90
2023/03/11 06:47:14;;;;;;;5.03;2.20;;;;;;;-0.26;78.04;100939.06;5058878;28;20028;-89
2023/03/11 06:49:41;;;;;;;4.95;2.35;;;;;;;-0.28;77.95;100939.06;5090026;28;20039;-90
2023/03/11 06:52:07;;;;;;;5.07;2.40;;;;;;;-0.34;77.88;100933.81;5076540;28;20077;-91
2023/03/11 06:54:32;;;;;;;4.43;2.35;;;;;;;-0.22;77.67;100956.41;5071168;28;20024;-90
2023/03/11 06:56:58;;;;;;;7.82;2.65;;;;;;;-0.18;77.68;100958.19;5072387;28;20161;-90
2023/03/11 06:59:23;;;;;;;5.00;2.22;;;;;;;-0.13;77.61;100972.06;5087208;28;20020;-90
2023/03/11 07:01:48;;;;;;;5.70;2.35;;;;;;;-0.07;77.73;100976.41;5090043;28;20476;-90
2023/03/11 07:04:14;;;;;;;2.97;2.65;;;;;;;-0.05;77.91;100972.97;5084971;28;20027;-91
2023/03/11 07:06:40;;;;;;;3.33;2.47;;;;;;;0.04;77.85;100989.47;5069933;28;20027;-91
2023/03/11 07:09:06;;;;;;;4.10;1.92;;;;;;;0.12;77.92;101005.97;5072398;28;20027;-91
2023/03/11 07:11:31;;;;;;;5.78;2.50;;;;;;;0.12;77.72;100991.25;5072112;28;20399;-90
2023/03/11 07:13:56;;;;;;;6.68;2.50;;;;;;;0.25;77.85;100998.25;5089920;28;20028;-90
2023/03/11 07:16:25;;;;;;;3.63;2.28;;;;;;;0.31;77.08;101002.59;5071873;28;20023;-90
2023/03/11 07:18:53;;;;;;;3.63;2.30;;;;;;;0.33;77.44;100997.41;5090080;28;20028;-90
2023/03/11 07:21:20;;;;;;;10.77;2.88;;;;;;;0.41;77.46;101000.91;5072447;28;20118;-90
2023/03/11 07:23:48;;;;;;;3.65;2.55;;;;;;;0.41;77.17;100991.34;5089820;28;20823;-90
2023/03/11 07:26:14;;;;;;;4.03;2.15;;;;;;;0.38;76.70;100980.09;5071771;28;20372;-90
2023/03/11 07:28:41;;;;;;;6.68;3.03;;;;;;;0.60;76.38;101004.44;5072088;28;20103;-91
2023/03/11 07:31:12;;;;;;;6.07;2.42;;;;;;;0.63;76.11;100997.50;5090290;28;20024;-91
2023/03/11 07:33:37;;;;;;;8.95;3.28;;;;;;;0.69;75.77;100996.66;5071636;28;20024;-91
2023/03/11 07:36:11;;;;;;;4.35;2.17;;;;;;;0.80;75.19;101007.97;5071760;28;20119;-91
2023/03/11 07:38:37;;;;;;;7.50;2.80;;;;;;;0.80;74.71;100994.09;5071741;28;20024;-91
2023/03/11 07:41:03;;;;;;;6.75;2.30;;;;;;;0.93;74.83;101011.44;5072060;28;20031;-91
2023/03/11 07:43:29;;;;;;;4.70;2.35;;;;;;;0.98;75.04;101015.81;5071437;28;20108;-91
2023/03/11 07:46:03;;;;;;;8.05;2.28;;;;;;;1.06;75.26;101021.03;5071343;28;20067;-91
2023/03/11 07:48:28;;;;;;;7.75;2.72;;;;;;;1.10;74.83;101004.53;5072801;28;20050;-91
2023/03/11 07:51:05;;;;;;;5.35;2.50;;;;;;;1.19;74.45;101016.72;5093986;28;20103;-91
2023/03/11 07:53:31;;;;;;;5.78;2.45;;;;;;;1.25;74.45;101024.53;5075393;28;20070;-91
2023/03/11 07:55:57;;;;;;;5.22;2.22;;;;;;;1.34;74.86;101021.06;5093095;28;20434;-91
2023/03/11 07:58:23;;;;;;;4.78;1.95;;;;;;;1.45;73.86;101032.38;5075292;28;20066;-91
2023/03/11 08:00:48;;;;;;;7.35;2.67;;;;;;;1.55;73.09;101028.03;5091083;28;20110;-90
2023/03/11 08:03:13;;;;;;;6.05;2.20;;;;;;;1.66;73.28;101031.47;5072982;28;20028;-90
2023/03/11 08:05:39;;;;;;;5.28;2.28;;;;;;;1.77;72.83;101033.22;5070899;28;20024;-90
2023/03/11 08:08:04;;;;;;;3.80;2.03;;;;;;;2.00;72.21;101042.72;5093328;28;20425;-90
2023/03/11 08:10:29;;;;;;;5.82;2.28;;;;;;;2.22;71.16;101027.91;5074990;28;20027;-89
2023/03/11 08:12:55;;;;;;;6.28;2.10;;;;;;;2.56;70.47;101046.91;5075232;28;20028;-90
2023/03/11 08:15:20;;;;;;;6.63;2.22;;;;;;;2.78;70.18;101029.41;5063568;28;20510;-89
2023/03/11 08:17:45;;;;;;;7.03;2.25;;;;;;;3.19;69.74;101043.97;5090422;28;20069;-89
2023/03/11 08:20:11;;;;;;;3.90;2.30;;;;;;;3.50;69.28;101037.66;5093115;28;20024;-89
2023/03/11 08:22:36;;;;;;;11.43;3.03;;;;;;;3.97;69.22;101053.81;5093194;28;20085;-89
2023/03/11 08:25:02;;;;;;;3.95;2.15;;;;;;;4.35;66.54;101050.78;5092042;28;20020;-89
2023/03/11 08:27:27;;;;;;;4.93;2.08;;;;;;;4.78;65.33;101045.88;5093023;28;20085;-89
2023/03/11 08:29:53;;;;;;;9.05;2.05;;;;;;;5.23;65.46;101050.50;5074596;28;20020;-89
2023/03/11 08:32:18;;;;;;;7.70;2.35;;;;;;;5.65;62.56;101029.75;5074778;28;20429;-88
2023/03/11 08:34:43;;;;;;;3.63;1.92;;;;;;;5.98;62.67;101042.31;5092235;28;20091;-89
2023/03/11 08:37:09;;;;;;;6.93;1.77;;;;;;;6.31;59.40;101039.94;5061274;28;20038;-89
2023/03/11 08:39:34;;;;;;;2.30;1.58;;;;;;;6.60;59.12;101045.47;5092541;28;20020;-88
2023/03/11 08:42:00;;;;;;;6.57;1.50;;;;;;;6.98;56.86;101045.56;5093103;28;20110;-88
2023/03/11 08:44:25;;;;;;;5.00;1.58;;;;;;;7.24;57.35;101059.00;5092422;28;20020;-88
2023/03/11 08:46:51;;;;;;;2.33;1.23;;;;;;;7.21;54.81;101061.69;5092930;28;20081;-88
2023/03/11 08:49:16;;;;;;;5.47;1.80;;;;;;;7.40;54.37;101051.59;5078023;28;20055;-87
2023/03/11 08:51:41;;;;;;;4.45;1.70;;;;;;;7.79;54.39;101064.72;5096027;28;20020;-87
2023/03/11 08:54:07;;;;;;;2.97;1.50;;;;;;;8.12;50.27;101068.22;5088205;28;20103;-87
2023/03/11 08:56:35;;;;;;;6.38;1.50;;;;;;;8.68;53.11;101068.47;5090299;28;20048;-87
2023/03/11 08:59:00;;;;;;;2.90;1.50;;;;;;;8.94;51.72;101068.56;5092918;28;20471;-87
2023/03/11 09:01:28;;;;;;;4.70;1.90;;;;;;;9.59;48.99;101074.47;5092194;28;20028;-87
2023/03/11 09:03:53;;;;;;;11.45;2.05;;;;;;;10.02;48.79;101076.56;5092752;28;20414;-87
2023/03/11 09:06:19;;;;;;;3.42;1.00;;;;;;;10.32;45.97;101076.47;5091299;28;20502;-87
2023/03/11 09:08:44;;;;;;;4.35;1.70;;;;;;;10.66;44.22;101078.75;5074974;28;20103;-87
2023/03/11 09:11:12;;;;;;;1.88;1.05;;;;;;;11.52;44.64;101088.66;5074694;28;20045;-87
2023/03/11 09:13:39;;;;;;;8.20;1.30;;;;;;;12.26;41.83;101068.81;5094203;28;20086;-87
2023/03/11 09:16:06;;;;;;;4.78;1.48;;;;;;;12.19;39.96;101076.19;5092517;28;20107;-88
2023/03/11 09:18:31;;;;;;;0.80;0.80;;;;;;;12.24;39.57;101068.03;5093573;28;20055;-87
2023/03/11 09:20:58;;;;;;;6.80;1.08;;;;;;;12.71;38.50;101073.00;5093098;28;20050;-87
2023/03/11 09:23:24;;;;;;;4.80;0.55;;;;;;;13.56;37.18;101085.88;5093718;28;20071;-87
2023/03/11 09:25:49;;;;;;;1.55;0.80;;;;;;;14.01;36.35;101078.28;5064323;28;20044;-87
2023/03/11 09:28:14;;;;;;;5.15;1.33;;;;;;;14.66;35.16;101080.28;5093388;28;20085;-87
2023/03/11 09:30:40;;;;;;;3.33;0.82;;;;;;;15.20;34.56;101087.09;5092981;28;20429;-87
2023/03/11 09:33:08;;;;;;;3.15;0.90;;;;;;;14.94;33.63;101087.66;5094206;28;20070;-85
2023/03/11 09:35:33;;;;;;;2.90;1.35;;;;;;;15.23;33.81;101088.72;5084565;28;20111;-87
2023/03/11 09:37:59;;;;;;;2.17;0.90;;;;;;;15.91;31.35;101091.97;5074520;28;20542;-87
2023/03/11 09:40:27;;;;;;;1.67;0.52;;;;;;;16.27;30.04;101098.72;5073879;28;20024;-87
2023/03/11 09:42:58;;;;;;;1.63;0.80;;;;;;;16.28;31.25;101098.66;5073936;28;20062;-87
2023/03/11 09:45:28;;;;;;;5.13;1.23;;;;;;;16.70;29.67;101086.31;5092884;28;20537;-88
2023/03/11 09:48:23;;;;;;;4.38;0.90;;;;;;;17.64;34.61;101081.22;5092622;28;20026;-87
2023/03/11 09:51:12;;;;;;;4.35;0.63;;;;;;;18.01;33.41;101095.72;5092635;28;20027;-87
2023/03/11 09:53:38;;;;;;;3.10;0.70;;;;;;;17.18;30.84;101100.22;5091697;28;20031;-88
2023/03/11 09:56:06;;;;;;;2.27;0.60;;;;;;;16.07;32.82;101092.75;5088705;28;20044;-88
2023/03/11 09:58:37;;;;;;;2.85;0.93;;;;;;;15.28;34.66;101089.31;5087898;28;20321;-88
2023/03/11 10:01:15;;;;;;;3.40;0.90;;;;;;;15.13;35.65;101096.34;5075716;28;20144;-88
2023/03/11 10:03:42;;;;;;;4.32;1.10;;;;;;;14.82;32.53;101091.81;5079401;28;20105;-89
2023/03/11 10:06:14;;;;;;;0.70;0.50;;;;;;;14.42;32.11;101088.59;5091574;28;20115;-88
2023/03/11 10:09:05;;;;;;;3.67;0.75;;;;;;;13.93;34.12;101100.88;5074281;28;20028;-88
2023/03/11 10:11:33;;;;;;;2.53;0.70;;;;;;;13.22;37.19;101098.13;5033179;28;20102;-88
2023/03/11 10:14:24;;;;;;;1.50;0.50;;;;;;;12.69;39.65;101089.00;5073900;28;20027;-88
2023/03/11 10:16:59;;;;;;;1.85;0.88;;;;;;;12.06;38.70;101095.31;5035539;28;20036;-88
2023/03/11 10:19:40;;;;;;;1.05;0.70;;;;;;;11.62;39.89;101106.78;5094340;28;20028;-88
2023/03/11 10:22:22;;;;;;;2.47;0.70;;;;;;;11.24;42.01;101103.88;5092154;28;20080;-87
2023/03/11 10:24:59;;;;;;;;;;;;;;;11.12;41.21;101103.47;5089111;28;20036;-89
2023/03/11 10:27:33;;;;;;;5.45;0.82;;;;;;;10.64;41.84;101091.19;5088537;28;19939;-88
2023/03/11 10:30:07;;;;;;;2.15;0.60;;;;;;;10.97;41.31;101100.50;5091965;28;20502;-88
2023/03/11 10:33:04;;;;;;;1.35;0.60;;;;;;;11.67;41.41;101111.91;5073985;28;20077;-89
2023/03/11 10:35:38;;;;;;;2.03;0.63;;;;;;;11.61;37.90;101120.09;5083029;28;20055;-89
2023/03/11 10:38:13;;;;;;;2.45;0.90;;;;;;;11.41;40.38;101120.88;5091943;28;20058;-89
2023/03/11 10:40:41;;;;;;;4.80;0.80;;;;;;;11.53;40.64;101114.25;5091950;28;20023;-90
2023/03/11 10:43:33;;;;;;;2.50;1.00;;;;;;;11.97;41.78;101109.81;5091668;28;20032;-89
2023/03/11 10:45:58;;;;;;;3.50;1.00;;;;;;;12.87;38.71;101118.28;5056249;28;20044;-88
2023/03/11 10:48:25;;;;;;;1.80;0.80;;;;;;;12.87;36.93;101121.81;5073741;28;20039;-88
2023/03/11 10:51:00;;;;;;;4.28;0.90;;;;;;;12.22;37.63;101121.13;5072926;28;20032;-88
2023/03/11 10:53:26;;;;;;;2.35;0.75;;;;;;;10.99;34.40;101116.31;5074597;28;20024;-88
2023/03/11 10:55:57;;;;;;;3.10;0.90;;;;;;;10.79;38.18;101114.41;5090750;28;20040;-88
2023/03/11 10:58:29;;;;;;;1.63;0.68;;;;;;;11.42;39.57;101110.25;5092391;28;20103;-89
2023/03/11 11:01:16;;;;;;;3.42;1.10;;;;;;;12.71;34.78;101120.75;5089524;28;20032;-88
2023/03/11 11:03:44;;;;;;;0.82;0.60;;;;;;;14.10;32.32;101103.53;5061353;28;20416;-89
2023/03/11 11:06:24;;;;;;;2.55;0.98;;;;;;;15.17;35.70;101103.22;5073486;28;20020;-89
2023/03/11 11:09:16;;;;;;;3.15;1.00;;;;;;;15.99;34.71;101099.50;5074606;28;20035;-88
2023/03/11 11:11:59;;;;;;;2.17;0.80;;;;;;;15.99;33.19;101107.50;5091810;28;20085;-89
2023/03/11 11:14:24;;;;;;;4.32;1.05;;;;;;;14.87;33.42;101105.75;5073166;28;20028;-89
2023/03/11 11:16:50;;;;;;;1.65;0.52;;;;;;;14.25;32.57;101096.59;5073016;28;20112;-89
2023/03/11 11:19:17;;;;;;;1.65;0.73;;;;;;;14.74;33.21;101110.03;5092316;28;20024;-89
2023/03/11 11:21:47;;;;;;;1.88;0.70;;;;;;;14.95;34.10;101118.66;5091988;28;20066;-89
2023/03/11 11:24:22;;;;;;;3.83;0.60;;;;;;;14.59;32.76;101113.47;5075122;28;20078;-89
2023/03/11 11:27:10;;;;;;;2.03;0.80;;;;;;;14.03;36.79;101118.06;5096370;28;20028;-89
2023/03/11 11:29:35;;;;;;;2.90;0.90;;;;;;;13.54;33.23;101117.84;5076939;28;20031;-89
2023/03/11 11:32:23;;;;;;;3.40;0.68;;;;;;;13.12;37.38;101129.50;5095728;28;20011;-89